Fortsville, New York
Current Conditions -  °F | °C
As of 8:53 AM on Sunday 25 Jan 2015 (Local Time) from KGFL Reporting Station
Scattered Clouds Scattered Clouds  
Wind Chill: 12°   Ceiling: Unl
Heat Index: 26°   Visibility: 8mi
Dew Point:   Wind: 20mph
Humidity: 49%   Direction: 300°WNW
Pressure: 29.65"   Gusts: 26mph
Location:  43.1979°N, 73.6839°W
Report Text: KGFL 251353Z AUTO 30017G23KT 8SM SCT035 M03/M13 A2965 RMK AO2 SNE06 SLP051 P0000 T10331128
Loading
Personal Weather Stations






























Interactive Weather Map New forecast layout! Learn more

10-Day Weather Forecast

Advertisements
Track Severe Weather on mobile